Flight Track Log - Related Links

Times and Time Zones

All times are in EDT time to prevent confusion due to time zone crossing. See the CES2279 flight status page for this flight to view local times or setup timezone preferences in your user account.

Time Position Orientation Groundspeed Altitude Reporting Facility
EDT Latitude Longitude Course Direction KTS MPH feet Rate Location/Type
Mon 07:08:00 AM 36.5187 98.4084 271° West  Level Estimated
Mon 07:09:00 AM 36.5165 98.2913 269° West  Level Estimated
Mon 07:10:00 AM 36.5143 98.1741 269° West  Level Estimated
Mon 07:11:00 AM 36.5120 98.0569 269° West  Level Estimated
Mon 07:12:00 AM 36.5095 97.9397 269° West  Level Estimated
Mon 07:13:00 AM 36.5069 97.8226 268° West  Level Estimated
Mon 07:14:00 AM 36.5042 97.7054 268° West  Level Estimated
Mon 07:15:00 AM 36.5014 97.5882 268° West  Level Estimated
Mon 07:16:00 AM 36.4985 97.4711 268° West  Level Estimated
Mon 07:17:00 AM 36.4954 97.3540 268° West  Level Estimated
Mon 07:18:00 AM 36.4923 97.2369 268° West  Level Estimated
Mon 07:19:00 AM 36.4890 97.1198 268° West  Level Estimated
Mon 07:20:00 AM 36.4856 97.0026 268° West  Level Estimated
Mon 07:21:00 AM 36.4822 96.8856 268° West  Level Estimated
Mon 07:22:00 AM 36.4785 96.7685 268° West  Level Estimated
Mon 07:23:00 AM 36.4748 96.6514 268° West  Level Estimated
Mon 07:24:00 AM 36.4710 96.5343 268° West  Level Estimated
Mon 07:25:00 AM 36.4670 96.4173 268° West  Level Estimated
Mon 07:26:00 AM 36.4630 96.3003 268° West  Level Estimated
Mon 07:27:00 AM 36.4588 96.1833 267° West  Level Estimated
Mon 07:28:00 AM 36.4545 96.0662 267° West  Level Estimated
Mon 07:29:00 AM 36.4501 95.9492 267° West  Level Estimated
Mon 07:30:00 AM 36.4456 95.8323 267° West  Level Estimated
Mon 07:31:00 AM 36.4409 95.7153 267° West  Level Estimated
Mon 07:32:00 AM 36.4362 95.5984 267° West  Level Estimated
Mon 07:33:00 AM 36.4313 95.4814 267° West  Level Estimated
Mon 07:34:00 AM 36.4263 95.3645 267° West  Level Estimated
Mon 07:35:00 AM 36.4212 95.2476 267° West  Level Estimated
Mon 07:36:00 AM 36.4160 95.1307 267° West  Level Estimated
Mon 07:37:00 AM 36.4107 95.0138 267° West  Level Estimated
Mon 07:38:00 AM 36.4050 94.8910 267° West  Level Estimated
Mon 07:39:00 AM 36.4000 94.7861 267° West  Level Estimated
Mon 07:40:00 AM 36.4000 94.7861 90° East  Level Estimated
Mon 07:41:00 AM 36.4000 94.7861 90° East  Level Estimated
Mon 07:42:00 AM 36.4000 94.7861 90° East  Level Estimated
Mon 07:43:00 AM 36.4000 94.7861 90° East  Level Estimated
Mon 07:44:00 AM 36.4000 94.7861 90° East  Level Estimated
Mon 07:45:00 AM 36.4000 94.7861 90° East  Level Estimated
Mon 07:46:00 AM 36.4000 94.7861 90° East  Level Estimated
Mon 07:47:00 AM 36.4000 94.7861 90° East  Level Estimated
Mon 07:48:00 AM 36.4000 94.7861 90° East  Level Estimated
Mon 07:49:00 AM 36.4000 94.7861 90° East  Level Estimated
Mon 07:50:00 AM 36.4000 94.7861 90° East  Level Estimated
Mon 07:51:00 AM 36.4000 94.7861 90° East  Level Estimated
Mon 07:52:00 AM 36.4000 94.7861 90° East  Level Estimated

Login

Don't have an account? Register now (free) for customized features, flight alerts, and more!